Terminal Aerodrome Forecast
Issued by NWS

Home | Current Version | Previous Version | Text Only | Print | Product List | Glossary On
Versions: 1 2 3 4 5 6 7 8 9 10 11 12 13 14 15 16 17 18
923
FTUS43 KABR 311541 AAB
TAFPIR
TAF AMD
KPIR 311541Z 3116/0112 28021G28KT P6SM SCT050
     FM010000 28021G29KT P6SM BKN080
     FM010300 27010KT P6SM SCT150=

USA.gov is the U.S. government's official web portal to all federal, state and local government web resources and services.